Highland Beach, Florida
Current Conditions -  °F | °C
As of 3:50 PM on Friday 24 Oct 2014 (Local Time) from KBCT Reporting Station
Overcast Overcast  
Wind Chill: 26°   Ceiling: 3600
Heat Index: 27°   Visibility: 10mi
Dew Point: 20°   Wind: 20mph
Humidity: 69%   Direction: 60°ENE
Pressure: 29.83"   Gusts: NA
Location:  26.4095°N, 80.0961°W
Report Text: KBCT 241950Z 06017KT 10SM FEW029 BKN036 OVC044 26/20 A2983
Loading
Personal Weather Stations






























Interactive Weather Map
Tropical Storm Tracking
New forecast layout! Learn more

10-Day Weather Forecast

Advertisements
Track Severe Weather on mobile